createdAt,value
2022-12-06T00:00:40.135Z,60.00
2022-12-06T00:03:27.785Z,60.02
2022-12-06T00:06:18.739Z,59.87
2022-12-06T00:09:06.670Z,59.89
2022-12-06T00:11:55.010Z,60.07
2022-12-06T00:14:42.699Z,59.65
2022-12-06T00:17:30.305Z,59.70
2022-12-06T00:20:18.070Z,59.61
2022-12-06T00:23:05.649Z,59.88
2022-12-06T00:25:53.278Z,59.92
2022-12-06T00:28:41.946Z,59.92
2022-12-06T00:31:31.488Z,59.87
2022-12-06T00:34:19.210Z,59.84
2022-12-06T00:37:06.798Z,60.04
2022-12-06T00:39:54.416Z,59.88
2022-12-06T00:42:42.037Z,59.94
2022-12-06T00:45:29.613Z,60.08
2022-12-06T00:48:17.281Z,59.89
2022-12-06T00:51:05.153Z,60.00
2022-12-06T00:53:52.851Z,59.94
2022-12-06T00:56:40.454Z,59.98
2022-12-06T00:59:28.010Z,59.98
2022-12-06T01:02:15.538Z,59.97
2022-12-06T01:05:03.455Z,60.11
2022-12-06T01:07:51.192Z,60.05
2022-12-06T01:10:39.258Z,60.01
2022-12-06T01:13:27.024Z,59.96
2022-12-06T01:16:23.215Z,59.89
2022-12-06T01:19:12.770Z,60.03
2022-12-06T01:22:00.352Z,59.80
2022-12-06T01:24:48.268Z,60.00
2022-12-06T01:27:35.903Z,59.99
2022-12-06T01:30:23.494Z,60.14
2022-12-06T01:33:11.168Z,60.11
2022-12-06T01:35:58.722Z,59.83
2022-12-06T01:38:50.776Z,59.87
2022-12-06T01:41:39.396Z,59.95
2022-12-06T01:44:41.135Z,59.92
2022-12-06T01:47:28.686Z,59.98
2022-12-06T01:50:24.383Z,60.02
2022-12-06T01:53:13.074Z,59.90
2022-12-06T01:56:01.380Z,60.03
2022-12-06T01:58:52.699Z,60.09
2022-12-06T02:01:40.933Z,59.91
2022-12-06T02:04:30.931Z,59.90
2022-12-06T02:07:20.611Z,59.98
2022-12-06T02:10:08.697Z,59.97
2022-12-06T02:12:58.887Z,59.93
2022-12-06T02:16:24.305Z,60.14
2022-12-06T02:19:49.344Z,59.94
2022-12-06T02:23:05.114Z,59.88
2022-12-06T02:26:21.430Z,59.79
2022-12-06T02:29:17.731Z,60.26
2022-12-06T02:32:34.635Z,59.90
2022-12-06T02:35:25.139Z,59.79
2022-12-06T02:38:25.471Z,59.77
2022-12-06T02:41:38.148Z,59.78
2022-12-06T02:44:42.916Z,59.85
2022-12-06T02:47:35.262Z,59.90
2022-12-06T02:50:29.803Z,60.02
2022-12-06T02:53:20.878Z,59.88
2022-12-06T02:56:08.654Z,59.84
2022-12-06T02:58:56.436Z,59.84
2022-12-06T03:01:51.477Z,59.73
2022-12-06T03:04:51.223Z,59.77
2022-12-06T03:07:45.477Z,59.77
2022-12-06T03:10:46.873Z,59.90
2022-12-06T03:13:55.122Z,59.83
2022-12-06T03:17:03.786Z,59.77
2022-12-06T03:20:01.455Z,59.99
2022-12-06T03:22:58.696Z,60.08
2022-12-06T03:25:48.547Z,59.82
2022-12-06T03:28:38.995Z,59.82
2022-12-06T03:31:31.705Z,59.79
2022-12-06T03:34:24.634Z,59.89
2022-12-06T03:37:16.519Z,59.67
2022-12-06T03:40:14.824Z,59.63
2022-12-06T03:43:05.984Z,59.89
2022-12-06T03:46:08.683Z,59.85
2022-12-06T03:49:01.614Z,59.93
2022-12-06T03:51:49.645Z,59.78
2022-12-06T03:54:41.457Z,59.91
2022-12-06T03:57:29.569Z,59.94
2022-12-06T04:00:20.719Z,60.09
2022-12-06T04:03:08.628Z,60.08
2022-12-06T04:05:56.261Z,60.24
2022-12-06T04:08:43.864Z,60.24
2022-12-06T04:11:31.590Z,60.40
2022-12-06T04:14:19.166Z,60.37
2022-12-06T04:17:26.872Z,60.39
2022-12-06T04:20:14.503Z,60.48
2022-12-06T04:23:04.998Z,60.41
2022-12-06T04:25:52.687Z,60.53
2022-12-06T04:28:58.714Z,60.47
2022-12-06T04:32:04.599Z,60.33
2022-12-06T04:35:10.805Z,60.26
2022-12-06T04:38:17.960Z,60.52
2022-12-06T04:41:05.678Z,60.62
2022-12-06T04:43:53.525Z,60.54
2022-12-06T04:46:41.311Z,60.66
2022-12-06T04:49:29.201Z,60.60
2022-12-06T04:52:17.752Z,60.50
2022-12-06T04:55:05.901Z,60.83
2022-12-06T04:57:53.630Z,60.39
2022-12-06T05:00:44.813Z,60.56
2022-12-06T05:03:32.620Z,60.67
2022-12-06T05:06:20.402Z,60.37
2022-12-06T05:09:08.094Z,60.12
2022-12-06T05:11:55.844Z,60.24
2022-12-06T05:14:43.466Z,60.34
2022-12-06T05:17:31.167Z,60.03
2022-12-06T05:20:18.906Z,60.14
2022-12-06T05:23:06.582Z,60.26
2022-12-06T05:26:01.543Z,60.17
2022-12-06T05:28:49.383Z,59.92
2022-12-06T05:31:37.152Z,60.12
2022-12-06T05:34:25.181Z,59.91
2022-12-06T05:37:15.514Z,59.74
2022-12-06T05:40:03.862Z,59.86
2022-12-06T05:42:52.102Z,59.92
2022-12-06T05:45:40.344Z,59.90
2022-12-06T05:48:28.614Z,59.76
2022-12-06T05:51:16.491Z,59.74
2022-12-06T05:54:06.815Z,59.82
2022-12-06T05:56:55.839Z,59.75
2022-12-06T05:59:43.704Z,59.69
2022-12-06T06:02:31.538Z,59.63
2022-12-06T06:05:19.557Z,59.58
2022-12-06T06:08:07.336Z,59.70
2022-12-06T06:10:55.736Z,59.62
2022-12-06T06:13:43.392Z,59.44
2022-12-06T06:16:32.908Z,59.10
2022-12-06T06:19:23.863Z,59.16
2022-12-06T06:22:11.536Z,59.36
2022-12-06T06:24:59.201Z,59.15
2022-12-06T06:27:46.857Z,59.15
2022-12-06T06:30:34.496Z,59.14
2022-12-06T06:33:22.238Z,59.04
2022-12-06T06:36:10.399Z,59.11
2022-12-06T06:38:59.138Z,58.85
2022-12-06T06:41:46.784Z,58.75
2022-12-06T06:44:34.424Z,58.72
2022-12-06T06:47:22.906Z,59.05
2022-12-06T06:50:11.094Z,58.76
2022-12-06T06:52:58.764Z,58.80
2022-12-06T06:55:47.216Z,58.41
2022-12-06T06:58:38.181Z,58.37
2022-12-06T07:01:27.501Z,58.42
2022-12-06T07:04:15.234Z,58.31
2022-12-06T07:07:02.814Z,58.33
2022-12-06T07:09:50.538Z,58.02
2022-12-06T07:12:38.287Z,58.06
2022-12-06T07:15:26.030Z,58.00
2022-12-06T07:18:13.700Z,58.12
2022-12-06T07:21:04.485Z,58.21
2022-12-06T07:23:52.488Z,58.02
2022-12-06T07:26:41.036Z,57.80
2022-12-06T07:29:28.767Z,57.88
2022-12-06T07:32:16.412Z,57.90
2022-12-06T07:35:05.232Z,57.76
2022-12-06T07:37:53.163Z,57.71
2022-12-06T07:41:03.539Z,57.65
2022-12-06T07:44:07.050Z,57.58
2022-12-06T07:46:55.336Z,57.33
2022-12-06T07:49:43.067Z,57.41
2022-12-06T07:52:35.379Z,57.43
2022-12-06T07:55:23.022Z,57.61
2022-12-06T07:58:10.841Z,57.59
2022-12-06T08:00:58.581Z,57.75
2022-12-06T08:03:46.250Z,57.61
2022-12-06T08:06:34.869Z,57.28
2022-12-06T08:09:22.651Z,57.20
2022-12-06T08:12:10.697Z,57.17
2022-12-06T08:14:59.951Z,57.25
2022-12-06T08:17:47.939Z,57.13
2022-12-06T08:20:35.664Z,57.16
2022-12-06T08:23:24.305Z,57.10
2022-12-06T08:26:16.576Z,56.80
2022-12-06T08:29:04.866Z,57.21
2022-12-06T08:31:52.525Z,57.32
2022-12-06T08:34:40.299Z,57.30
2022-12-06T08:37:27.901Z,57.36
2022-12-06T08:40:15.712Z,57.38
2022-12-06T08:43:03.438Z,57.39
2022-12-06T08:45:52.357Z,57.20
2022-12-06T08:48:43.158Z,57.32
2022-12-06T08:51:32.990Z,57.44
2022-12-06T08:54:23.450Z,57.33
2022-12-06T08:57:11.154Z,57.22
2022-12-06T08:59:59.375Z,57.34
2022-12-06T09:02:47.516Z,57.40
2022-12-06T09:05:35.761Z,57.22
2022-12-06T09:08:23.510Z,57.19
2022-12-06T09:11:11.388Z,57.25
2022-12-06T09:13:59.108Z,57.28
2022-12-06T09:16:46.812Z,57.44
2022-12-06T09:19:35.077Z,57.50
2022-12-06T09:22:22.706Z,57.55
2022-12-06T09:25:10.673Z,57.36
2022-12-06T09:27:59.698Z,57.48
2022-12-06T09:30:47.447Z,57.40
2022-12-06T09:33:36.026Z,57.34
2022-12-06T09:36:26.467Z,57.26
2022-12-06T09:39:17.915Z,57.24
2022-12-06T09:42:14.494Z,56.99
2022-12-06T09:45:10.413Z,57.08
2022-12-06T09:48:45.680Z,57.00
2022-12-06T09:52:13.697Z,56.79
2022-12-06T09:55:27.343Z,56.93
2022-12-06T09:58:17.904Z,56.96
2022-12-06T10:01:24.297Z,55.86
2022-12-06T10:04:24.176Z,54.68
2022-12-06T10:07:35.467Z,54.19
2022-12-06T10:10:31.953Z,54.78
2022-12-06T10:13:28.133Z,53.66
2022-12-06T10:16:22.214Z,52.57
